createdAt,value
2018-07-30T00:02:12.563Z,12.43
2018-07-30T00:04:41.613Z,10.50
2018-07-30T00:07:10.490Z,8.50
2018-07-30T00:09:39.133Z,9.03
2018-07-30T00:12:08.391Z,9.40
2018-07-30T00:14:37.194Z,9.40
2018-07-30T00:17:05.999Z,9.23
2018-07-30T00:19:34.823Z,8.93
2018-07-30T00:22:06.661Z,9.77
2018-07-30T00:24:35.790Z,8.90
2018-07-30T00:27:05.099Z,9.53
2018-07-30T00:29:34.295Z,9.77
2018-07-30T00:32:03.105Z,9.63
2018-07-30T00:34:31.922Z,10.00
2018-07-30T00:37:00.711Z,9.23
2018-07-30T00:39:29.517Z,9.00
2018-07-30T00:41:58.350Z,9.57
2018-07-30T00:44:27.159Z,9.57
2018-07-30T00:46:56.327Z,9.00
2018-07-30T00:49:25.139Z,9.83
2018-07-30T00:51:54.000Z,9.90
2018-07-30T00:54:22.913Z,9.60
2018-07-30T00:56:51.782Z,9.80
2018-07-30T00:59:20.531Z,10.33
2018-07-30T01:01:49.358Z,9.87
2018-07-30T01:04:18.177Z,9.50
2018-07-30T01:06:47.017Z,9.53
2018-07-30T01:09:16.235Z,10.30
2018-07-30T01:11:45.145Z,9.60
2018-07-30T01:14:15.064Z,9.67
2018-07-30T01:16:44.886Z,9.13
2018-07-30T01:19:13.694Z,9.47
2018-07-30T01:21:42.649Z,9.77
2018-07-30T01:24:11.396Z,9.70
2018-07-30T01:26:46.637Z,9.90
2018-07-30T01:29:15.953Z,10.93
2018-07-30T01:31:44.775Z,9.90
2018-07-30T01:34:14.722Z,10.40
2018-07-30T01:36:43.546Z,10.43
2018-07-30T01:39:12.377Z,10.23
2018-07-30T01:41:42.189Z,9.13
2018-07-30T01:44:10.985Z,10.53
2018-07-30T01:46:39.797Z,9.90
2018-07-30T01:49:08.599Z,9.93
2018-07-30T01:51:37.817Z,10.10
2018-07-30T01:54:06.645Z,10.30
2018-07-30T01:56:35.300Z,9.83
2018-07-30T01:59:04.155Z,10.50
2018-07-30T02:01:33.016Z,9.93
2018-07-30T02:04:01.823Z,10.03
2018-07-30T02:06:30.738Z,10.40
2018-07-30T02:09:07.394Z,10.17
2018-07-30T02:11:36.733Z,10.23
2018-07-30T02:14:06.251Z,9.73
2018-07-30T02:16:35.389Z,10.10
2018-07-30T02:19:04.247Z,10.00
2018-07-30T02:21:32.954Z,9.83
2018-07-30T02:24:01.974Z,10.03
2018-07-30T02:26:30.802Z,9.40
2018-07-30T02:28:59.735Z,9.50
2018-07-30T02:31:28.551Z,10.77
2018-07-30T02:33:57.936Z,9.57
2018-07-30T02:36:26.745Z,9.83
2018-07-30T02:38:55.578Z,9.43
2018-07-30T02:41:24.436Z,9.50
2018-07-30T02:43:53.297Z,10.23
2018-07-30T02:46:22.091Z,9.17
2018-07-30T02:48:50.906Z,10.37
2018-07-30T02:51:19.741Z,9.07
2018-07-30T02:53:48.559Z,9.10
2018-07-30T02:56:17.796Z,10.20
2018-07-30T02:58:46.605Z,9.63
2018-07-30T03:01:15.430Z,9.90
2018-07-30T03:03:44.265Z,11.47
2018-07-30T03:06:13.071Z,9.93
2018-07-30T03:08:41.878Z,10.23
2018-07-30T03:11:10.691Z,9.93
2018-07-30T03:13:39.522Z,9.67
2018-07-30T03:16:08.371Z,10.00
2018-07-30T03:18:37.882Z,10.00
2018-07-30T03:21:07.218Z,9.80
2018-07-30T03:23:36.027Z,9.33
2018-07-30T03:26:04.859Z,10.10
2018-07-30T03:28:33.660Z,10.47
2018-07-30T03:31:02.496Z,10.63
2018-07-30T03:33:31.344Z,10.53
2018-07-30T03:36:00.169Z,11.60
2018-07-30T03:38:29.539Z,9.83
2018-07-30T03:40:58.503Z,10.17
2018-07-30T03:43:27.324Z,9.83
2018-07-30T03:45:56.125Z,10.30
2018-07-30T03:48:25.205Z,11.60
2018-07-30T03:50:54.067Z,10.43
2018-07-30T03:53:22.869Z,10.87
2018-07-30T03:55:51.697Z,10.57
2018-07-30T03:58:20.499Z,10.93
2018-07-30T04:00:49.338Z,10.87
2018-07-30T04:03:18.272Z,10.73
2018-07-30T04:05:46.940Z,10.77
2018-07-30T04:08:16.053Z,10.97
2018-07-30T04:10:44.740Z,10.20
2018-07-30T04:13:13.366Z,11.20
2018-07-30T04:15:42.161Z,10.47
2018-07-30T04:18:10.993Z,10.23
2018-07-30T04:20:40.161Z,11.47
2018-07-30T04:23:08.985Z,10.37
2018-07-30T04:25:38.077Z,11.53
2018-07-30T04:28:06.857Z,10.87
2018-07-30T04:30:35.722Z,11.07
2018-07-30T04:33:04.558Z,10.93
2018-07-30T04:35:33.382Z,11.23
2018-07-30T04:38:02.182Z,11.00
2018-07-30T04:40:31.002Z,11.13
2018-07-30T04:42:59.910Z,10.10
2018-07-30T04:45:28.792Z,10.87
2018-07-30T04:47:57.775Z,11.97
2018-07-30T04:50:26.590Z,11.17
2018-07-30T04:52:55.391Z,11.27
2018-07-30T04:55:24.239Z,12.17
2018-07-30T04:57:53.053Z,11.20
2018-07-30T05:00:21.917Z,10.80
2018-07-30T05:02:50.756Z,11.53
2018-07-30T05:05:19.570Z,10.77
2018-07-30T05:07:48.385Z,12.03
2018-07-30T05:10:17.406Z,10.93
2018-07-30T05:12:46.228Z,10.00
2018-07-30T05:15:15.047Z,11.47
2018-07-30T05:17:43.857Z,11.80
2018-07-30T05:20:12.690Z,11.87
2018-07-30T05:22:41.967Z,11.93
2018-07-30T05:25:10.815Z,11.33
2018-07-30T05:27:39.638Z,10.90
2018-07-30T05:30:08.458Z,12.07
2018-07-30T05:32:37.407Z,11.17
2018-07-30T05:35:06.260Z,12.90
2018-07-30T05:37:35.066Z,12.37
2018-07-30T05:40:03.921Z,11.87
2018-07-30T05:42:32.647Z,12.30
2018-07-30T05:45:01.468Z,11.80
2018-07-30T05:47:30.310Z,12.67
2018-07-30T05:49:59.147Z,10.40
2018-07-30T05:52:27.946Z,13.10
2018-07-30T05:54:57.221Z,11.63
2018-07-30T05:57:26.035Z,11.40
2018-07-30T05:59:54.916Z,12.53
2018-07-30T06:02:24.405Z,12.30
2018-07-30T06:04:53.223Z,11.87
2018-07-30T06:07:22.044Z,11.83
2018-07-30T06:09:50.936Z,12.60
2018-07-30T06:12:19.755Z,11.73
2018-07-30T06:14:48.589Z,11.30
2018-07-30T06:17:19.215Z,11.23
2018-07-30T06:19:50.985Z,11.83
2018-07-30T06:22:19.859Z,11.30
2018-07-30T06:24:50.102Z,11.93
2018-07-30T06:27:18.972Z,10.30
2018-07-30T06:29:47.746Z,11.63
2018-07-30T06:32:16.607Z,11.23
2018-07-30T06:34:45.509Z,11.27
2018-07-30T06:37:14.728Z,11.28
2018-07-30T06:39:43.827Z,11.70
2018-07-30T06:42:12.646Z,11.95
2018-07-30T06:44:41.457Z,12.80
2018-07-30T06:47:10.290Z,15.40
2018-07-30T06:49:39.236Z,11.03
2018-07-30T06:52:08.175Z,10.97
2018-07-30T06:54:37.078Z,10.97
2018-07-30T06:57:06.131Z,11.97
2018-07-30T06:59:34.986Z,12.17
2018-07-30T07:02:04.506Z,11.40
2018-07-30T07:04:33.360Z,12.07
2018-07-30T07:07:02.200Z,11.30
2018-07-30T07:09:31.043Z,10.80
2018-07-30T07:11:59.890Z,10.53
2018-07-30T07:14:28.942Z,10.97
2018-07-30T07:16:57.831Z,11.23
2018-07-30T07:19:26.793Z,11.33
2018-07-30T07:21:55.661Z,11.75
2018-07-30T07:24:24.458Z,12.18
2018-07-30T07:26:53.987Z,13.68
2018-07-30T07:29:22.772Z,10.70
2018-07-30T07:31:51.993Z,10.88
2018-07-30T07:34:20.840Z,11.78
2018-07-30T07:36:49.651Z,12.05
2018-07-30T07:39:18.751Z,11.63
2018-07-30T07:41:47.571Z,10.57
2018-07-30T07:44:16.386Z,10.13
2018-07-30T07:46:45.235Z,11.15
2018-07-30T07:49:14.075Z,10.82
2018-07-30T07:51:42.888Z,11.00
2018-07-30T07:54:11.765Z,11.65
2018-07-30T07:56:40.587Z,11.20
2018-07-30T07:59:09.447Z,11.03
2018-07-30T08:01:38.657Z,10.48
2018-07-30T08:04:07.507Z,10.30
2018-07-30T08:06:36.341Z,9.73
2018-07-30T08:09:09.087Z,9.50
2018-07-30T08:11:38.430Z,10.38
2018-07-30T08:14:07.521Z,11.28
2018-07-30T08:16:36.347Z,10.18
2018-07-30T08:19:05.246Z,10.03
2018-07-30T08:21:34.091Z,9.50
2018-07-30T08:24:03.394Z,9.45
2018-07-30T08:26:32.210Z,9.93
2018-07-30T08:29:01.527Z,8.73
2018-07-30T08:31:30.322Z,24.80
2018-07-30T08:33:59.231Z,10.08
2018-07-30T08:36:31.080Z,9.90
2018-07-30T08:39:00.664Z,9.75
2018-07-30T08:41:29.485Z,9.63
2018-07-30T08:43:58.558Z,8.73
2018-07-30T08:46:27.395Z,9.63
2018-07-30T08:48:56.254Z,8.58
2018-07-30T08:51:25.031Z,8.85
2018-07-30T08:53:53.826Z,7.90
2018-07-30T08:56:22.693Z,8.78
2018-07-30T08:58:51.503Z,7.67
2018-07-30T09:01:20.289Z,7.83
2018-07-30T09:03:49.794Z,7.28
2018-07-30T09:06:18.936Z,7.60
2018-07-30T09:08:47.777Z,8.28
2018-07-30T09:11:16.599Z,8.90
2018-07-30T09:13:45.423Z,7.78
2018-07-30T09:16:14.341Z,8.35
2018-07-30T09:18:43.141Z,8.33
2018-07-30T09:21:12.819Z,8.33
2018-07-30T09:23:41.698Z,8.88
2018-07-30T09:26:10.537Z,8.10
2018-07-30T09:28:39.570Z,7.83
2018-07-30T09:31:08.728Z,8.58
2018-07-30T09:33:37.517Z,8.03
2018-07-30T09:36:06.326Z,8.33
2018-07-30T09:38:35.432Z,8.43
2018-07-30T09:41:04.295Z,7.85
2018-07-30T09:43:33.151Z,7.78
2018-07-30T09:46:02.072Z,7.67
2018-07-30T09:48:30.859Z,7.90
2018-07-30T09:51:00.204Z,7.72
2018-07-30T09:53:29.043Z,7.22
2018-07-30T09:55:58.496Z,7.97
2018-07-30T09:58:27.331Z,7.85
2018-07-30T10:01:05.514Z,7.92
2018-07-30T10:03:34.619Z,6.87
2018-07-30T10:06:03.532Z,7.80
2018-07-30T10:08:32.374Z,7.28
2018-07-30T10:11:01.649Z,6.85
2018-07-30T10:13:30.503Z,6.60
2018-07-30T10:15:59.335Z,5.72
2018-07-30T10:18:28.164Z,6.05
2018-07-30T10:20:56.973Z,6.75
2018-07-30T10:23:25.776Z,6.80
2018-07-30T10:25:54.603Z,5.97
2018-07-30T10:28:23.425Z,5.87
2018-07-30T10:30:52.328Z,5.45
2018-07-30T10:33:21.897Z,5.30
2018-07-30T10:35:50.718Z,6.03
2018-07-30T10:38:19.646Z,5.70
2018-07-30T10:40:48.337Z,5.55
2018-07-30T10:43:17.229Z,5.90
2018-07-30T10:45:46.044Z,6.33
2018-07-30T10:48:14.858Z,5.72
2018-07-30T10:50:43.703Z,6.03
2018-07-30T10:53:12.513Z,5.62
2018-07-30T10:55:42.274Z,6.10
2018-07-30T10:58:11.421Z,5.80
2018-07-30T11:00:40.251Z,5.12
2018-07-30T11:03:09.057Z,5.85
2018-07-30T11:05:37.918Z,5.60
2018-07-30T11:08:06.738Z,5.08
2018-07-30T11:10:35.570Z,5.78
2018-07-30T11:13:04.374Z,5.53
2018-07-30T11:15:33.207Z,5.67
2018-07-30T11:18:02.446Z,5.85
2018-07-30T11:20:31.241Z,6.00
2018-07-30T11:23:00.035Z,5.55
2018-07-30T11:25:28.932Z,5.30
2018-07-30T11:27:57.724Z,5.33
2018-07-30T11:30:26.557Z,5.80
2018-07-30T11:32:55.374Z,5.62
2018-07-30T11:35:24.687Z,5.30
2018-07-30T11:37:53.511Z,5.33
2018-07-30T11:40:22.596Z,6.45
2018-07-30T11:42:51.467Z,5.83
2018-07-30T11:45:20.278Z,4.80
2018-07-30T11:47:49.172Z,5.35
2018-07-30T11:50:17.979Z,6.00
2018-07-30T11:52:46.782Z,6.15
2018-07-30T11:55:15.613Z,5.83
2018-07-30T11:57:44.454Z,4.95
2018-07-30T12:00:13.260Z,5.87
2018-07-30T12:02:42.476Z,5.12
2018-07-30T12:05:11.291Z,4.87
2018-07-30T12:07:40.169Z,5.90
2018-07-30T12:10:09.032Z,5.55
2018-07-30T12:12:37.844Z,5.72
2018-07-30T12:15:06.702Z,5.40
2018-07-30T12:17:35.522Z,5.55
2018-07-30T12:20:04.591Z,5.22
2018-07-30T12:22:33.441Z,6.33
2018-07-30T12:25:02.714Z,8.13
2018-07-30T12:27:31.522Z,5.22
2018-07-30T12:30:00.338Z,5.55
2018-07-30T12:32:29.150Z,6.08
2018-07-30T12:34:57.870Z,6.45
2018-07-30T12:37:27.315Z,6.40
2018-07-30T12:39:56.194Z,6.12
2018-07-30T12:42:25.010Z,6.65
2018-07-30T12:44:53.883Z,6.50
2018-07-30T12:47:23.141Z,5.67
2018-07-30T12:49:51.946Z,6.28
2018-07-30T12:52:20.745Z,6.47
2018-07-30T12:54:49.573Z,6.25
2018-07-30T12:57:18.375Z,5.90
2018-07-30T12:59:47.398Z,5.97
2018-07-30T13:02:19.168Z,6.03
2018-07-30T13:04:47.957Z,5.35
2018-07-30T13:07:16.803Z,5.67
2018-07-30T13:09:46.007Z,6.53
2018-07-30T13:12:14.823Z,5.80
2018-07-30T13:14:43.645Z,5.95
2018-07-30T13:17:12.462Z,6.28
2018-07-30T13:19:41.277Z,6.67
2018-07-30T13:22:10.088Z,6.05
2018-07-30T13:24:38.989Z,7.03
2018-07-30T13:27:07.852Z,5.08
2018-07-30T13:29:36.663Z,4.83
2018-07-30T13:32:05.881Z,5.78
2018-07-30T13:34:34.679Z,5.25
2018-07-30T13:37:03.521Z,5.12
2018-07-30T13:39:32.782Z,6.15
2018-07-30T13:42:01.624Z,5.37
2018-07-30T13:44:30.438Z,6.17
2018-07-30T13:46:59.305Z,5.22
2018-07-30T13:49:28.219Z,5.70
2018-07-30T13:51:57.089Z,5.08
2018-07-30T13:54:26.337Z,5.03
2018-07-30T13:56:55.083Z,5.53
2018-07-30T13:59:23.900Z,4.85
2018-07-30T14:01:52.802Z,5.30
2018-07-30T14:04:21.668Z,4.53
2018-07-30T14:06:50.535Z,5.83
2018-07-30T14:09:19.334Z,5.62
2018-07-30T14:11:48.153Z,5.37
2018-07-30T14:14:17.030Z,5.22
2018-07-30T14:16:46.395Z,5.25
2018-07-30T14:19:15.232Z,5.87
2018-07-30T14:21:44.048Z,5.17
2018-07-30T14:24:12.960Z,5.37
2018-07-30T14:26:41.993Z,5.72
2018-07-30T14:29:10.795Z,5.87
2018-07-30T14:31:39.660Z,5.08
2018-07-30T14:34:08.462Z,5.92
2018-07-30T14:36:37.383Z,5.75
2018-07-30T14:39:09.205Z,6.40
2018-07-30T14:41:38.602Z,6.40
2018-07-30T14:44:07.778Z,5.42
2018-07-30T14:46:36.642Z,5.10
2018-07-30T14:49:05.459Z,4.80
2018-07-30T14:51:34.093Z,5.40
2018-07-30T14:54:02.915Z,5.35
2018-07-30T14:56:31.755Z,5.17
2018-07-30T14:59:00.602Z,5.60
2018-07-30T15:01:29.846Z,5.42
2018-07-30T15:03:58.668Z,5.62
2018-07-30T15:06:27.442Z,6.12
2018-07-30T15:08:56.297Z,5.30
2018-07-30T15:11:25.135Z,5.50
2018-07-30T15:13:53.924Z,6.42
2018-07-30T15:16:23.703Z,5.42
2018-07-30T15:18:52.735Z,5.45
2018-07-30T15:21:21.553Z,5.42
2018-07-30T15:23:50.699Z,5.45
2018-07-30T15:26:19.542Z,5.37
2018-07-30T15:28:48.387Z,6.25
2018-07-30T15:31:17.218Z,6.35
2018-07-30T15:33:46.065Z,6.05
2018-07-30T15:36:15.202Z,6.20
2018-07-30T15:38:44.131Z,6.20
2018-07-30T15:41:12.965Z,6.60
2018-07-30T15:43:42.327Z,6.12
2018-07-30T15:46:11.572Z,5.30
2018-07-30T15:48:40.400Z,5.62
2018-07-30T15:51:09.372Z,5.95
2018-07-30T15:53:38.186Z,5.25
2018-07-30T15:56:07.397Z,5.35
2018-07-30T15:58:36.303Z,5.65
2018-07-30T16:01:05.161Z,5.08
2018-07-30T16:03:33.971Z,5.47
2018-07-30T16:06:02.782Z,5.53
2018-07-30T16:08:32.008Z,6.05
2018-07-30T16:11:01.526Z,6.60
2018-07-30T16:13:30.346Z,5.37
2018-07-30T16:15:59.207Z,6.30
2018-07-30T16:18:28.060Z,5.30
2018-07-30T16:20:56.878Z,5.40
2018-07-30T16:23:25.853Z,5.72
2018-07-30T16:25:54.529Z,5.72
2018-07-30T16:28:23.410Z,5.15
2018-07-30T16:30:52.734Z,6.30
2018-07-30T16:33:24.490Z,6.25
2018-07-30T16:35:53.332Z,5.62
2018-07-30T16:38:22.138Z,5.97
2018-07-30T16:40:51.045Z,5.65
2018-07-30T16:43:19.922Z,5.85
2018-07-30T16:45:49.210Z,5.30
2018-07-30T16:48:18.127Z,5.45
2018-07-30T16:50:47.352Z,5.40
2018-07-30T16:53:16.181Z,5.40
2018-07-30T16:55:44.983Z,4.70
2018-07-30T16:58:14.150Z,5.17
2018-07-30T17:00:42.957Z,4.95
2018-07-30T17:03:11.775Z,5.28
2018-07-30T17:05:40.595Z,5.65
2018-07-30T17:08:09.428Z,4.65
2018-07-30T17:10:38.246Z,4.80
2018-07-30T17:13:07.681Z,5.35
2018-07-30T17:15:36.611Z,4.70
2018-07-30T17:18:05.516Z,4.65
2018-07-30T17:20:34.311Z,4.70
2018-07-30T17:23:03.175Z,5.08
2018-07-30T17:25:32.056Z,5.00
2018-07-30T17:28:01.747Z,4.22
2018-07-30T17:30:30.569Z,4.40
2018-07-30T17:32:59.426Z,4.00
2018-07-30T17:35:28.315Z,4.10
2018-07-30T17:37:57.197Z,4.17
2018-07-30T17:40:25.994Z,4.25
2018-07-30T17:42:54.825Z,4.20
2018-07-30T17:45:23.645Z,4.08
2018-07-30T17:47:52.828Z,4.70
2018-07-30T17:50:21.826Z,4.75
2018-07-30T17:52:50.679Z,4.58
2018-07-30T17:55:19.592Z,4.80
2018-07-30T17:57:48.931Z,4.08
2018-07-30T18:00:17.853Z,4.85
2018-07-30T18:02:46.707Z,3.90
2018-07-30T18:05:18.455Z,4.05
2018-07-30T18:07:49.127Z,5.10
2018-07-30T18:10:18.019Z,4.83
2018-07-30T18:12:47.217Z,4.60
2018-07-30T18:15:16.131Z,5.12
2018-07-30T18:17:45.103Z,5.30
2018-07-30T18:20:14.619Z,5.15
2018-07-30T18:22:43.508Z,4.95
2018-07-30T18:25:12.386Z,5.33
2018-07-30T18:27:41.334Z,5.08
2018-07-30T18:30:10.197Z,4.83
2018-07-30T18:32:40.042Z,4.45
2018-07-30T18:35:09.112Z,5.72
2018-07-30T18:37:38.163Z,5.28
2018-07-30T18:40:07.236Z,5.17
2018-07-30T18:42:36.566Z,6.22
2018-07-30T18:45:07.041Z,5.33
2018-07-30T18:47:36.111Z,5.40
2018-07-30T18:50:06.535Z,6.33
2018-07-30T18:52:35.491Z,6.10
2018-07-30T18:55:04.614Z,5.10
2018-07-30T18:57:33.627Z,5.72
2018-07-30T19:00:02.586Z,5.72
2018-07-30T19:02:31.463Z,5.65
2018-07-30T19:05:00.773Z,5.00
2018-07-30T19:07:29.827Z,5.20
2018-07-30T19:09:58.873Z,5.50
2018-07-30T19:12:27.847Z,4.70
2018-07-30T19:14:57.140Z,5.53
2018-07-30T19:17:26.203Z,5.50
2018-07-30T19:19:55.123Z,5.22
2018-07-30T19:22:24.245Z,5.35
2018-07-30T19:24:53.169Z,5.30
2018-07-30T19:27:22.495Z,5.80
2018-07-30T19:29:51.333Z,5.80
2018-07-30T19:32:20.349Z,6.45
2018-07-30T19:34:49.773Z,4.90
2018-07-30T19:37:18.845Z,5.47
2018-07-30T19:39:48.143Z,5.12
2018-07-30T19:42:17.135Z,5.05
2018-07-30T19:44:46.044Z,5.22
2018-07-30T19:47:14.931Z,5.33
2018-07-30T19:49:44.343Z,4.65
2018-07-30T19:52:13.697Z,4.90
2018-07-30T19:54:43.749Z,4.58
2018-07-30T19:57:13.194Z,4.87
2018-07-30T19:59:42.135Z,4.95
2018-07-30T20:02:10.959Z,4.92
2018-07-30T20:04:39.882Z,5.33
2018-07-30T20:07:08.725Z,4.92
2018-07-30T20:09:37.645Z,4.87
2018-07-30T20:12:07.029Z,4.92
2018-07-30T20:14:36.149Z,5.12
2018-07-30T20:17:07.895Z,5.20
2018-07-30T20:19:37.351Z,4.97
2018-07-30T20:22:06.203Z,5.40
2018-07-30T20:24:35.103Z,5.20
2018-07-30T20:27:04.039Z,5.08
2018-07-30T20:29:33.042Z,4.90
2018-07-30T20:32:02.345Z,5.30
2018-07-30T20:34:31.522Z,4.58
2018-07-30T20:37:00.402Z,4.83
2018-07-30T20:39:29.257Z,5.60
2018-07-30T20:41:58.122Z,4.33
2018-07-30T20:44:27.017Z,4.97
2018-07-30T20:46:55.898Z,5.58
2018-07-30T20:49:24.830Z,5.53
2018-07-30T20:51:53.846Z,4.92
2018-07-30T20:54:23.518Z,4.85
2018-07-30T20:56:52.850Z,5.72
2018-07-30T20:59:21.776Z,5.67
2018-07-30T21:01:50.932Z,5.40
2018-07-30T21:04:19.845Z,5.42
2018-07-30T21:06:48.694Z,5.53
2018-07-30T21:09:17.328Z,5.78
2018-07-30T21:11:46.186Z,5.53
2018-07-30T21:14:15.015Z,5.10
2018-07-30T21:16:43.856Z,5.33
2018-07-30T21:19:13.056Z,5.75
2018-07-30T21:21:41.877Z,5.95
2018-07-30T21:24:10.711Z,5.80
2018-07-30T21:26:39.543Z,5.92
2018-07-30T21:29:08.408Z,5.95
2018-07-30T21:31:37.401Z,6.08
2018-07-30T21:34:06.304Z,5.12
2018-07-30T21:36:35.193Z,5.70
2018-07-30T21:39:04.854Z,5.92
2018-07-30T21:41:33.836Z,5.50
2018-07-30T21:44:02.776Z,5.92
2018-07-30T21:46:31.651Z,6.05
2018-07-30T21:49:00.535Z,5.55
2018-07-30T21:51:29.386Z,6.42
2018-07-30T21:53:58.233Z,5.65
2018-07-30T21:56:28.200Z,5.70
2018-07-30T21:58:57.040Z,5.97
2018-07-30T22:01:25.857Z,6.35
2018-07-30T22:03:54.975Z,6.12
2018-07-30T22:06:23.907Z,5.78
2018-07-30T22:08:52.755Z,6.08
2018-07-30T22:11:21.590Z,6.33
2018-07-30T22:13:50.407Z,5.92
2018-07-30T22:16:19.237Z,5.92
2018-07-30T22:18:48.223Z,5.50
2018-07-30T22:21:17.063Z,5.97
2018-07-30T22:23:45.870Z,5.60
2018-07-30T22:26:15.170Z,6.65
2018-07-30T22:28:44.114Z,6.22
2018-07-30T22:31:12.962Z,6.42
2018-07-30T22:33:41.774Z,5.28
2018-07-30T22:36:10.646Z,5.08
2018-07-30T22:38:39.472Z,5.40
2018-07-30T22:41:08.563Z,6.17
2018-07-30T22:43:37.417Z,6.05
2018-07-30T22:46:06.374Z,5.85
2018-07-30T22:48:35.598Z,6.42
2018-07-30T22:51:04.819Z,6.00
2018-07-30T22:53:33.711Z,5.62
2018-07-30T22:56:02.544Z,6.10
2018-07-30T22:58:31.615Z,5.97
2018-07-30T23:01:00.922Z,6.33
2018-07-30T23:03:29.799Z,6.35
2018-07-30T23:05:58.613Z,6.25
2018-07-30T23:08:27.432Z,6.03
2018-07-30T23:10:56.658Z,6.37
2018-07-30T23:13:25.561Z,7.20
2018-07-30T23:15:54.373Z,6.40
2018-07-30T23:18:23.256Z,6.50
2018-07-30T23:20:52.063Z,6.45
2018-07-30T23:23:21.875Z,6.67
2018-07-30T23:25:50.710Z,7.00
2018-07-30T23:28:19.538Z,7.00
2018-07-30T23:30:48.347Z,6.60
2018-07-30T23:33:17.799Z,6.97
2018-07-30T23:35:46.631Z,6.35
2018-07-30T23:38:15.434Z,5.83
2018-07-30T23:40:44.264Z,6.72
2018-07-30T23:43:12.905Z,6.35
2018-07-30T23:45:48.531Z,6.90
2018-07-30T23:48:17.364Z,6.67
2018-07-30T23:50:46.175Z,7.08
2018-07-30T23:53:15.363Z,6.55
2018-07-30T23:55:44.173Z,7.45
2018-07-30T23:58:12.977Z,7.12
